Terminal Aerodrome Forecast
Issued by NWS Paducah, KY

Home | Current Version | Previous Version | Graphics & Text | Print | Product List | Glossary On
Versions: 1 2 3 4 5 6 7 8 9 10 11 12 13 14 15
919
FTUS43 KPAH 041120
TAFPAH
TAF
KPAH 041120Z 0412/0512 09006KT 4SM BR BKN008
      TEMPO 0412/0415 4SM -RA BR SCT008 OVC030
     FM041500 13005KT 3SM -RADZ BR BKN008
     FM042100 29005KT 4SM BR SCT007 OVC015
     FM050300 33006KT P6SM SCT050 BKN250=

USA.gov is the U.S. government's official web portal to all federal, state and local government web resources and services.